Terminal Aerodrome Forecast
Issued by NWS

Home | Current Version | Previous Version | Text Only | Print | Product List | Glossary On
Versions: 1 2 3 4 5 6 7 8 9 10 11 12 13 14 15 16 17 18 19 20 21 22 23 24 25 26 27 28 29 30 31 32 33 34 35 36 37 38 39 40 41 42 43 44 45 46 47 48 49 50
000
FTUS44 KHGX 241404
TAFCXO
TAFCXO
TAF AMD
KCXO 241404Z 2414/2512 17009KT P6SM -RA FEW008 OVC080
     FM241700 17009KT P6SM VCTS BKN035CB OVC250
     FM242300 17011KT P6SM BKN035 OVC250
     FM250200 16008KT P6SM VCTS BKN030CB OVC250
     FM250300 16008KT P6SM SHRA BKN022 OVC060 PROB30 2504/2507 +TSRA
      OVC020CB
     FM250700 17009KT 6SM TSRA BKN015 OVC030CB
      TEMPO 2508/2512 3SM +TSRA OVC010CB=

USA.gov is the U.S. government's official web portal to all federal, state and local government web resources and services.